sensor_id;sensor_type;location;lat;lon;timestamp;temperature;humidity
16929;DHT22;8581;47.334;11.190;2024-03-17T00:01:51;5.10;99.90
16929;DHT22;8581;47.334;11.190;2024-03-17T00:04:23;5.10;99.90
16929;DHT22;8581;47.334;11.190;2024-03-17T00:06:55;5.10;99.90
16929;DHT22;8581;47.334;11.190;2024-03-17T00:09:28;4.90;99.90
16929;DHT22;8581;47.334;11.190;2024-03-17T00:12:00;4.90;99.90
16929;DHT22;8581;47.334;11.190;2024-03-17T00:14:32;5.00;99.90
16929;DHT22;8581;47.334;11.190;2024-03-17T00:17:04;5.10;99.90
16929;DHT22;8581;47.334;11.190;2024-03-17T00:19:36;5.20;99.90
16929;DHT22;8581;47.334;11.190;2024-03-17T00:22:08;5.10;99.90
16929;DHT22;8581;47.334;11.190;2024-03-17T00:24:41;5.10;99.90
16929;DHT22;8581;47.334;11.190;2024-03-17T00:27:13;4.90;99.90
16929;DHT22;8581;47.334;11.190;2024-03-17T00:29:45;4.90;99.90
16929;DHT22;8581;47.334;11.190;2024-03-17T00:32:18;4.80;99.90
16929;DHT22;8581;47.334;11.190;2024-03-17T00:34:50;4.70;99.90
16929;DHT22;8581;47.334;11.190;2024-03-17T00:37:21;4.70;99.90
16929;DHT22;8581;47.334;11.190;2024-03-17T00:39:54;4.70;99.90
16929;DHT22;8581;47.334;11.190;2024-03-17T00:42:27;4.70;99.90
16929;DHT22;8581;47.334;11.190;2024-03-17T00:44:59;4.80;99.90
16929;DHT22;8581;47.334;11.190;2024-03-17T00:47:32;5.00;99.90
16929;DHT22;8581;47.334;11.190;2024-03-17T00:50:05;5.00;99.90
16929;DHT22;8581;47.334;11.190;2024-03-17T00:52:39;5.00;99.90
16929;DHT22;8581;47.334;11.190;2024-03-17T00:55:11;5.00;99.90
16929;DHT22;8581;47.334;11.190;2024-03-17T00:57:43;4.70;99.90
16929;DHT22;8581;47.334;11.190;2024-03-17T01:00:16;4.80;99.90
16929;DHT22;8581;47.334;11.190;2024-03-17T01:02:48;4.80;99.90
16929;DHT22;8581;47.334;11.190;2024-03-17T01:05:20;4.40;99.90
16929;DHT22;8581;47.334;11.190;2024-03-17T01:07:52;4.20;99.90
16929;DHT22;8581;47.334;11.190;2024-03-17T01:10:24;4.20;99.90
16929;DHT22;8581;47.334;11.190;2024-03-17T01:12:56;4.40;99.90
16929;DHT22;8581;47.334;11.190;2024-03-17T01:15:28;4.50;99.90
16929;DHT22;8581;47.334;11.190;2024-03-17T01:18:00;4.50;99.90
16929;DHT22;8581;47.334;11.190;2024-03-17T01:20:32;4.50;99.90
16929;DHT22;8581;47.334;11.190;2024-03-17T01:23:04;4.70;99.90
16929;DHT22;8581;47.334;11.190;2024-03-17T01:25:36;4.70;99.90
16929;DHT22;8581;47.334;11.190;2024-03-17T01:28:09;4.70;99.90
16929;DHT22;8581;47.334;11.190;2024-03-17T01:30:41;4.70;99.90
16929;DHT22;8581;47.334;11.190;2024-03-17T01:33:13;4.70;99.90
16929;DHT22;8581;47.334;11.190;2024-03-17T01:35:46;4.80;99.90
16929;DHT22;8581;47.334;11.190;2024-03-17T01:38:18;5.00;99.90
16929;DHT22;8581;47.334;11.190;2024-03-17T01:40:50;4.80;99.90
16929;DHT22;8581;47.334;11.190;2024-03-17T01:43:23;4.70;99.90
16929;DHT22;8581;47.334;11.190;2024-03-17T01:45:55;4.90;99.90
16929;DHT22;8581;47.334;11.190;2024-03-17T01:48:27;4.90;99.90
16929;DHT22;8581;47.334;11.190;2024-03-17T01:50:59;4.80;99.90
16929;DHT22;8581;47.334;11.190;2024-03-17T01:53:31;4.50;99.90
16929;DHT22;8581;47.334;11.190;2024-03-17T01:56:04;4.50;99.90
16929;DHT22;8581;47.334;11.190;2024-03-17T01:58:36;4.20;99.90
16929;DHT22;8581;47.334;11.190;2024-03-17T02:01:08;4.10;99.90
16929;DHT22;8581;47.334;11.190;2024-03-17T02:03:41;4.10;99.90
16929;DHT22;8581;47.334;11.190;2024-03-17T02:06:12;4.20;99.90
16929;DHT22;8581;47.334;11.190;2024-03-17T02:08:49;4.30;99.90
16929;DHT22;8581;47.334;11.190;2024-03-17T02:11:28;4.20;99.90
16929;DHT22;8581;47.334;11.190;2024-03-17T02:13:58;4.10;99.90
16929;DHT22;8581;47.334;11.190;2024-03-17T02:16:30;4.10;99.90
16929;DHT22;8581;47.334;11.190;2024-03-17T02:19:02;4.00;99.90
16929;DHT22;8581;47.334;11.190;2024-03-17T02:21:33;4.00;99.90
16929;DHT22;8581;47.334;11.190;2024-03-17T02:24:07;4.10;99.90
16929;DHT22;8581;47.334;11.190;2024-03-17T02:26:38;4.10;99.90
16929;DHT22;8581;47.334;11.190;2024-03-17T02:29:10;3.90;99.90
16929;DHT22;8581;47.334;11.190;2024-03-17T02:31:42;3.70;99.90
16929;DHT22;8581;47.334;11.190;2024-03-17T02:34:15;3.70;99.90
16929;DHT22;8581;47.334;11.190;2024-03-17T02:36:47;3.60;99.90
16929;DHT22;8581;47.334;11.190;2024-03-17T02:39:19;3.60;99.90
16929;DHT22;8581;47.334;11.190;2024-03-17T02:41:56;3.40;99.90
16929;DHT22;8581;47.334;11.190;2024-03-17T02:44:29;3.30;99.90
16929;DHT22;8581;47.334;11.190;2024-03-17T02:47:02;3.30;99.90
16929;DHT22;8581;47.334;11.190;2024-03-17T02:49:34;3.20;99.90
16929;DHT22;8581;47.334;11.190;2024-03-17T02:52:09;3.10;99.90
16929;DHT22;8581;47.334;11.190;2024-03-17T02:54:41;3.10;99.90
16929;DHT22;8581;47.334;11.190;2024-03-17T02:57:13;3.10;99.90
16929;DHT22;8581;47.334;11.190;2024-03-17T02:59:45;3.00;99.90
16929;DHT22;8581;47.334;11.190;2024-03-17T03:02:17;2.90;99.90
16929;DHT22;8581;47.334;11.190;2024-03-17T03:04:49;2.80;99.90
16929;DHT22;8581;47.334;11.190;2024-03-17T03:07:21;2.90;99.90
16929;DHT22;8581;47.334;11.190;2024-03-17T03:09:52;2.90;99.90
16929;DHT22;8581;47.334;11.190;2024-03-17T03:12:25;2.70;99.90
16929;DHT22;8581;47.334;11.190;2024-03-17T03:14:58;2.60;99.90
16929;DHT22;8581;47.334;11.190;2024-03-17T03:17:29;2.60;99.90
16929;DHT22;8581;47.334;11.190;2024-03-17T03:20:01;2.40;99.90
16929;DHT22;8581;47.334;11.190;2024-03-17T03:22:34;2.40;99.90
16929;DHT22;8581;47.334;11.190;2024-03-17T03:25:06;2.40;99.90
16929;DHT22;8581;47.334;11.190;2024-03-17T03:27:38;2.40;99.90
16929;DHT22;8581;47.334;11.190;2024-03-17T03:30:11;2.40;99.90
16929;DHT22;8581;47.334;11.190;2024-03-17T03:32:43;2.30;99.90
16929;DHT22;8581;47.334;11.190;2024-03-17T03:35:16;2.40;99.90
16929;DHT22;8581;47.334;11.190;2024-03-17T03:37:47;2.40;99.90
16929;DHT22;8581;47.334;11.190;2024-03-17T03:40:19;2.20;99.90
16929;DHT22;8581;47.334;11.190;2024-03-17T03:42:52;2.30;99.90
16929;DHT22;8581;47.334;11.190;2024-03-17T03:45:24;2.30;99.90
16929;DHT22;8581;47.334;11.190;2024-03-17T03:47:56;2.30;99.90
16929;DHT22;8581;47.334;11.190;2024-03-17T03:50:28;2.30;99.90
16929;DHT22;8581;47.334;11.190;2024-03-17T03:53:00;2.30;99.90
16929;DHT22;8581;47.334;11.190;2024-03-17T03:55:31;2.20;99.90
16929;DHT22;8581;47.334;11.190;2024-03-17T03:58:03;2.10;99.90
16929;DHT22;8581;47.334;11.190;2024-03-17T04:00:35;2.10;99.90
16929;DHT22;8581;47.334;11.190;2024-03-17T04:03:08;2.00;99.90
16929;DHT22;8581;47.334;11.190;2024-03-17T04:05:40;2.00;99.90
16929;DHT22;8581;47.334;11.190;2024-03-17T04:08:12;2.00;99.90
16929;DHT22;8581;47.334;11.190;2024-03-17T04:10:44;2.00;99.90
16929;DHT22;8581;47.334;11.190;2024-03-17T04:13:16;2.00;99.90
16929;DHT22;8581;47.334;11.190;2024-03-17T04:15:48;2.00;99.90
16929;DHT22;8581;47.334;11.190;2024-03-17T04:18:20;2.00;99.90
16929;DHT22;8581;47.334;11.190;2024-03-17T04:20:57;1.90;99.90
16929;DHT22;8581;47.334;11.190;2024-03-17T04:23:29;1.90;99.90
16929;DHT22;8581;47.334;11.190;2024-03-17T04:26:01;1.90;99.90
16929;DHT22;8581;47.334;11.190;2024-03-17T04:28:33;1.90;99.90
16929;DHT22;8581;47.334;11.190;2024-03-17T04:31:06;1.90;99.90
16929;DHT22;8581;47.334;11.190;2024-03-17T04:33:38;2.00;99.90
16929;DHT22;8581;47.334;11.190;2024-03-17T04:36:10;2.00;99.90
16929;DHT22;8581;47.334;11.190;2024-03-17T04:38:42;2.10;99.90
16929;DHT22;8581;47.334;11.190;2024-03-17T04:41:16;2.10;99.90
16929;DHT22;8581;47.334;11.190;2024-03-17T04:43:47;2.30;99.90
16929;DHT22;8581;47.334;11.190;2024-03-17T04:46:19;2.50;99.90
16929;DHT22;8581;47.334;11.190;2024-03-17T04:48:51;2.40;99.90
16929;DHT22;8581;47.334;11.190;2024-03-17T04:51:23;2.40;99.90
16929;DHT22;8581;47.334;11.190;2024-03-17T04:53:55;2.50;99.90
16929;DHT22;8581;47.334;11.190;2024-03-17T04:56:27;2.50;99.90
16929;DHT22;8581;47.334;11.190;2024-03-17T04:58:59;2.50;99.90
16929;DHT22;8581;47.334;11.190;2024-03-17T05:01:31;2.50;99.90
16929;DHT22;8581;47.334;11.190;2024-03-17T05:04:03;2.50;99.90
16929;DHT22;8581;47.334;11.190;2024-03-17T05:06:35;2.50;99.90
16929;DHT22;8581;47.334;11.190;2024-03-17T05:09:07;2.60;99.90
16929;DHT22;8581;47.334;11.190;2024-03-17T05:11:39;2.50;99.90
16929;DHT22;8581;47.334;11.190;2024-03-17T05:14:11;2.40;99.90
16929;DHT22;8581;47.334;11.190;2024-03-17T05:16:44;2.40;99.90
16929;DHT22;8581;47.334;11.190;2024-03-17T05:19:16;2.30;99.90
16929;DHT22;8581;47.334;11.190;2024-03-17T05:21:48;2.40;99.90
16929;DHT22;8581;47.334;11.190;2024-03-17T05:24:20;2.40;99.90
16929;DHT22;8581;47.334;11.190;2024-03-17T05:26:53;2.40;99.90
16929;DHT22;8581;47.334;11.190;2024-03-17T05:29:25;2.30;99.90
16929;DHT22;8581;47.334;11.190;2024-03-17T05:31:57;2.30;99.90
16929;DHT22;8581;47.334;11.190;2024-03-17T05:34:29;2.20;99.90
16929;DHT22;8581;47.334;11.190;2024-03-17T05:37:01;2.30;99.90
16929;DHT22;8581;47.334;11.190;2024-03-17T05:39:33;2.30;99.90
16929;DHT22;8581;47.334;11.190;2024-03-17T05:42:06;2.30;99.90
16929;DHT22;8581;47.334;11.190;2024-03-17T05:44:38;2.30;99.90
16929;DHT22;8581;47.334;11.190;2024-03-17T05:47:11;2.20;99.90
16929;DHT22;8581;47.334;11.190;2024-03-17T05:49:43;2.20;99.90
16929;DHT22;8581;47.334;11.190;2024-03-17T05:52:15;2.10;99.90
16929;DHT22;8581;47.334;11.190;2024-03-17T05:54:47;2.20;99.90
16929;DHT22;8581;47.334;11.190;2024-03-17T05:57:19;2.00;99.90
16929;DHT22;8581;47.334;11.190;2024-03-17T05:59:50;2.00;99.90
16929;DHT22;8581;47.334;11.190;2024-03-17T06:02:23;2.30;99.90
16929;DHT22;8581;47.334;11.190;2024-03-17T06:04:55;2.30;99.90
16929;DHT22;8581;47.334;11.190;2024-03-17T06:07:28;2.30;99.90
16929;DHT22;8581;47.334;11.190;2024-03-17T06:09:59;2.30;99.90
16929;DHT22;8581;47.334;11.190;2024-03-17T06:12:32;2.20;99.90
16929;DHT22;8581;47.334;11.190;2024-03-17T06:15:05;2.30;99.90
16929;DHT22;8581;47.334;11.190;2024-03-17T06:17:37;2.20;99.90
16929;DHT22;8581;47.334;11.190;2024-03-17T06:20:10;2.20;99.90
16929;DHT22;8581;47.334;11.190;2024-03-17T06:22:43;2.20;99.90
16929;DHT22;8581;47.334;11.190;2024-03-17T06:25:15;2.30;99.90
16929;DHT22;8581;47.334;11.190;2024-03-17T06:27:47;2.20;99.90
16929;DHT22;8581;47.334;11.190;2024-03-17T06:30:19;2.10;99.90
16929;DHT22;8581;47.334;11.190;2024-03-17T06:32:52;2.20;99.90
16929;DHT22;8581;47.334;11.190;2024-03-17T06:35:24;2.20;99.90
16929;DHT22;8581;47.334;11.190;2024-03-17T06:37:58;2.20;99.90
16929;DHT22;8581;47.334;11.190;2024-03-17T06:40:28;2.20;99.90
16929;DHT22;8581;47.334;11.190;2024-03-17T06:43:01;2.20;99.90
16929;DHT22;8581;47.334;11.190;2024-03-17T06:45:33;2.20;99.90
16929;DHT22;8581;47.334;11.190;2024-03-17T06:48:06;2.20;99.90
16929;DHT22;8581;47.334;11.190;2024-03-17T06:50:38;2.20;99.90
16929;DHT22;8581;47.334;11.190;2024-03-17T06:53:10;2.20;99.90
16929;DHT22;8581;47.334;11.190;2024-03-17T06:55:42;2.30;99.90
16929;DHT22;8581;47.334;11.190;2024-03-17T06:58:14;2.30;99.90
16929;DHT22;8581;47.334;11.190;2024-03-17T07:00:54;2.40;99.90
16929;DHT22;8581;47.334;11.190;2024-03-17T07:03:26;2.60;99.90
16929;DHT22;8581;47.334;11.190;2024-03-17T07:05:58;2.70;99.90
16929;DHT22;8581;47.334;11.190;2024-03-17T07:08:30;2.90;99.90
16929;DHT22;8581;47.334;11.190;2024-03-17T07:11:03;3.20;99.90
16929;DHT22;8581;47.334;11.190;2024-03-17T07:13:36;3.50;99.90
16929;DHT22;8581;47.334;11.190;2024-03-17T07:16:08;3.80;99.90
16929;DHT22;8581;47.334;11.190;2024-03-17T07:18:40;4.20;99.90
16929;DHT22;8581;47.334;11.190;2024-03-17T07:21:12;4.50;99.90
16929;DHT22;8581;47.334;11.190;2024-03-17T07:23:44;4.80;99.90
16929;DHT22;8581;47.334;11.190;2024-03-17T07:26:16;5.00;99.90
16929;DHT22;8581;47.334;11.190;2024-03-17T07:28:48;4.80;99.90
16929;DHT22;8581;47.334;11.190;2024-03-17T07:31:21;4.80;99.90
16929;DHT22;8581;47.334;11.190;2024-03-17T07:33:53;5.00;99.90
16929;DHT22;8581;47.334;11.190;2024-03-17T07:36:25;5.00;99.90
16929;DHT22;8581;47.334;11.190;2024-03-17T07:38:57;5.00;99.90
16929;DHT22;8581;47.334;11.190;2024-03-17T07:41:28;5.00;99.90
16929;DHT22;8581;47.334;11.190;2024-03-17T07:44:01;5.20;99.90
16929;DHT22;8581;47.334;11.190;2024-03-17T07:46:33;5.30;99.90
16929;DHT22;8581;47.334;11.190;2024-03-17T07:49:05;5.70;99.90
16929;DHT22;8581;47.334;11.190;2024-03-17T07:51:37;5.70;99.90
16929;DHT22;8581;47.334;11.190;2024-03-17T07:54:09;5.70;99.90
16929;DHT22;8581;47.334;11.190;2024-03-17T07:56:41;6.10;99.90
16929;DHT22;8581;47.334;11.190;2024-03-17T07:59:13;6.10;99.90
16929;DHT22;8581;47.334;11.190;2024-03-17T08:01:45;6.00;99.90
16929;DHT22;8581;47.334;11.190;2024-03-17T08:04:18;6.20;99.90
16929;DHT22;8581;47.334;11.190;2024-03-17T08:06:50;6.40;99.90
16929;DHT22;8581;47.334;11.190;2024-03-17T08:09:22;6.50;99.90
16929;DHT22;8581;47.334;11.190;2024-03-17T08:11:54;6.90;99.90
16929;DHT22;8581;47.334;11.190;2024-03-17T08:14:26;7.20;99.90
16929;DHT22;8581;47.334;11.190;2024-03-17T08:16:58;7.40;99.90
16929;DHT22;8581;47.334;11.190;2024-03-17T08:19:30;7.60;99.90
16929;DHT22;8581;47.334;11.190;2024-03-17T08:22:02;7.70;99.90
16929;DHT22;8581;47.334;11.190;2024-03-17T08:24:34;7.80;99.90
16929;DHT22;8581;47.334;11.190;2024-03-17T08:27:06;8.00;99.90
16929;DHT22;8581;47.334;11.190;2024-03-17T08:29:38;8.20;99.90
16929;DHT22;8581;47.334;11.190;2024-03-17T08:32:10;8.40;99.90
16929;DHT22;8581;47.334;11.190;2024-03-17T08:34:46;8.50;99.90
16929;DHT22;8581;47.334;11.190;2024-03-17T08:37:15;8.80;99.90
16929;DHT22;8581;47.334;11.190;2024-03-17T08:39:47;9.10;99.90
16929;DHT22;8581;47.334;11.190;2024-03-17T08:42:19;9.30;99.90
16929;DHT22;8581;47.334;11.190;2024-03-17T08:44:51;9.90;99.90
16929;DHT22;8581;47.334;11.190;2024-03-17T08:47:24;10.10;99.90
16929;DHT22;8581;47.334;11.190;2024-03-17T08:49:56;10.20;99.90
16929;DHT22;8581;47.334;11.190;2024-03-17T08:52:28;10.40;99.90
16929;DHT22;8581;47.334;11.190;2024-03-17T08:55:01;10.50;99.90
16929;DHT22;8581;47.334;11.190;2024-03-17T08:57:34;10.70;99.90
16929;DHT22;8581;47.334;11.190;2024-03-17T09:00:07;10.60;99.90
16929;DHT22;8581;47.334;11.190;2024-03-17T09:02:39;11.10;99.90
16929;DHT22;8581;47.334;11.190;2024-03-17T09:05:16;11.00;99.90
16929;DHT22;8581;47.334;11.190;2024-03-17T09:07:49;11.40;99.90
16929;DHT22;8581;47.334;11.190;2024-03-17T09:10:21;11.10;99.90
16929;DHT22;8581;47.334;11.190;2024-03-17T09:12:52;10.90;99.90
16929;DHT22;8581;47.334;11.190;2024-03-17T09:15:25;11.00;99.90
16929;DHT22;8581;47.334;11.190;2024-03-17T09:17:57;11.30;99.90
16929;DHT22;8581;47.334;11.190;2024-03-17T09:20:29;11.20;99.90
16929;DHT22;8581;47.334;11.190;2024-03-17T09:23:01;11.00;99.90
16929;DHT22;8581;47.334;11.190;2024-03-17T09:25:33;10.90;99.90
16929;DHT22;8581;47.334;11.190;2024-03-17T09:28:06;11.00;99.90
16929;DHT22;8581;47.334;11.190;2024-03-17T09:30:38;11.30;99.90
16929;DHT22;8581;47.334;11.190;2024-03-17T09:33:10;11.30;99.90
16929;DHT22;8581;47.334;11.190;2024-03-17T09:35:42;11.40;99.90
16929;DHT22;8581;47.334;11.190;2024-03-17T09:38:13;11.60;99.90
16929;DHT22;8581;47.334;11.190;2024-03-17T09:40:47;11.60;99.90
16929;DHT22;8581;47.334;11.190;2024-03-17T09:43:20;11.80;99.90
16929;DHT22;8581;47.334;11.190;2024-03-17T09:45:51;12.00;99.90
16929;DHT22;8581;47.334;11.190;2024-03-17T09:48:25;11.90;99.90
16929;DHT22;8581;47.334;11.190;2024-03-17T09:50:59;11.70;99.90
16929;DHT22;8581;47.334;11.190;2024-03-17T09:53:31;11.70;99.90
16929;DHT22;8581;47.334;11.190;2024-03-17T09:56:10;11.50;99.90
16929;DHT22;8581;47.334;11.190;2024-03-17T09:58:41;11.70;99.90
16929;DHT22;8581;47.334;11.190;2024-03-17T10:01:13;12.10;99.90
16929;DHT22;8581;47.334;11.190;2024-03-17T10:03:50;12.60;99.90
16929;DHT22;8581;47.334;11.190;2024-03-17T10:06:23;12.80;99.90
16929;DHT22;8581;47.334;11.190;2024-03-17T10:08:58;13.10;99.90
16929;DHT22;8581;47.334;11.190;2024-03-17T10:11:33;13.50;99.90
16929;DHT22;8581;47.334;11.190;2024-03-17T10:14:06;13.90;99.90
16929;DHT22;8581;47.334;11.190;2024-03-17T10:16:38;14.40;99.70
16929;DHT22;8581;47.334;11.190;2024-03-17T10:19:10;14.60;99.60
16929;DHT22;8581;47.334;11.190;2024-03-17T10:21:44;15.00;99.90
16929;DHT22;8581;47.334;11.190;2024-03-17T10:24:23;14.80;99.00
16929;DHT22;8581;47.334;11.190;2024-03-17T10:26:56;14.00;98.90
16929;DHT22;8581;47.334;11.190;2024-03-17T10:29:31;14.10;98.40
16929;DHT22;8581;47.334;11.190;2024-03-17T10:32:12;14.20;98.60
16929;DHT22;8581;47.334;11.190;2024-03-17T10:34:37;14.40;98.50
16929;DHT22;8581;47.334;11.190;2024-03-17T10:37:17;14.50;97.80
16929;DHT22;8581;47.334;11.190;2024-03-17T10:39:52;14.90;98.00
16929;DHT22;8581;47.334;11.190;2024-03-17T10:42:26;14.50;96.30
16929;DHT22;8581;47.334;11.190;2024-03-17T10:44:59;13.90;96.30
16929;DHT22;8581;47.334;11.190;2024-03-17T10:47:32;13.60;97.70
16929;DHT22;8581;47.334;11.190;2024-03-17T10:50:05;13.40;96.40
16929;DHT22;8581;47.334;11.190;2024-03-17T10:52:38;13.50;96.10
16929;DHT22;8581;47.334;11.190;2024-03-17T10:55:10;13.70;96.80
16929;DHT22;8581;47.334;11.190;2024-03-17T10:57:46;14.00;94.50
16929;DHT22;8581;47.334;11.190;2024-03-17T11:00:19;14.50;95.70
16929;DHT22;8581;47.334;11.190;2024-03-17T11:02:51;14.60;93.50
16929;DHT22;8581;47.334;11.190;2024-03-17T11:05:24;15.10;94.10
16929;DHT22;8581;47.334;11.190;2024-03-17T11:07:55;15.60;92.80
16929;DHT22;8581;47.334;11.190;2024-03-17T11:10:30;15.70;92.60
16929;DHT22;8581;47.334;11.190;2024-03-17T11:13:01;15.30;92.90
16929;DHT22;8581;47.334;11.190;2024-03-17T11:15:37;15.30;92.90
16929;DHT22;8581;47.334;11.190;2024-03-17T11:18:28;16.00;91.70
16929;DHT22;8581;47.334;11.190;2024-03-17T11:21:00;16.00;91.90
16929;DHT22;8581;47.334;11.190;2024-03-17T11:23:32;16.10;93.40
16929;DHT22;8581;47.334;11.190;2024-03-17T11:26:04;16.10;92.10
16929;DHT22;8581;47.334;11.190;2024-03-17T11:28:45;15.80;92.40
16929;DHT22;8581;47.334;11.190;2024-03-17T11:34:01;15.80;90.90
16929;DHT22;8581;47.334;11.190;2024-03-17T11:36:36;16.20;91.30
16929;DHT22;8581;47.334;11.190;2024-03-17T11:39:08;16.40;90.80
16929;DHT22;8581;47.334;11.190;2024-03-17T11:41:40;16.60;91.40
16929;DHT22;8581;47.334;11.190;2024-03-17T11:44:24;16.70;92.10
16929;DHT22;8581;47.334;11.190;2024-03-17T11:46:59;16.20;90.70
16929;DHT22;8581;47.334;11.190;2024-03-17T11:49:34;16.00;91.90
16929;DHT22;8581;47.334;11.190;2024-03-17T11:52:10;15.90;89.70
16929;DHT22;8581;47.334;11.190;2024-03-17T11:54:44;15.80;90.60
16929;DHT22;8581;47.334;11.190;2024-03-17T11:57:22;15.40;91.10
16929;DHT22;8581;47.334;11.190;2024-03-17T11:59:55;14.90;91.80
16929;DHT22;8581;47.334;11.190;2024-03-17T12:02:29;14.90;90.90
16929;DHT22;8581;47.334;11.190;2024-03-17T12:05:01;15.20;91.50
16929;DHT22;8581;47.334;11.190;2024-03-17T12:07:38;15.60;91.20
16929;DHT22;8581;47.334;11.190;2024-03-17T12:10:08;15.70;90.30
16929;DHT22;8581;47.334;11.190;2024-03-17T12:12:40;15.60;91.60
16929;DHT22;8581;47.334;11.190;2024-03-17T12:15:17;16.00;91.80
16929;DHT22;8581;47.334;11.190;2024-03-17T12:17:51;15.80;90.60
16929;DHT22;8581;47.334;11.190;2024-03-17T12:20:20;15.80;90.00
16929;DHT22;8581;47.334;11.190;2024-03-17T12:22:52;16.80;89.90
16929;DHT22;8581;47.334;11.190;2024-03-17T12:25:24;17.40;88.80
16929;DHT22;8581;47.334;11.190;2024-03-17T12:27:56;17.60;89.80
16929;DHT22;8581;47.334;11.190;2024-03-17T12:30:29;17.80;90.10
16929;DHT22;8581;47.334;11.190;2024-03-17T12:33:01;17.90;84.60
16929;DHT22;8581;47.334;11.190;2024-03-17T12:35:33;18.10;82.20
16929;DHT22;8581;47.334;11.190;2024-03-17T12:40:43;18.70;83.60
16929;DHT22;8581;47.334;11.190;2024-03-17T12:43:15;18.70;83.40
16929;DHT22;8581;47.334;11.190;2024-03-17T12:45:47;18.60;81.50
16929;DHT22;8581;47.334;11.190;2024-03-17T12:48:20;18.90;80.90
16929;DHT22;8581;47.334;11.190;2024-03-17T12:50:52;17.80;81.90
16929;DHT22;8581;47.334;11.190;2024-03-17T12:53:24;17.40;82.80
16929;DHT22;8581;47.334;11.190;2024-03-17T12:55:56;17.90;82.80
16929;DHT22;8581;47.334;11.190;2024-03-17T12:58:33;17.80;81.10
16929;DHT22;8581;47.334;11.190;2024-03-17T13:01:12;18.50;81.50
16929;DHT22;8581;47.334;11.190;2024-03-17T13:03:43;19.00;80.00
16929;DHT22;8581;47.334;11.190;2024-03-17T13:06:22;18.90;80.30
16929;DHT22;8581;47.334;11.190;2024-03-17T13:08:53;20.10;77.90
16929;DHT22;8581;47.334;11.190;2024-03-17T13:11:25;20.40;80.40
16929;DHT22;8581;47.334;11.190;2024-03-17T13:13:57;20.70;75.80
16929;DHT22;8581;47.334;11.190;2024-03-17T13:16:29;20.70;77.50
16929;DHT22;8581;47.334;11.190;2024-03-17T13:19:02;19.60;80.90
16929;DHT22;8581;47.334;11.190;2024-03-17T13:21:34;19.90;79.10
16929;DHT22;8581;47.334;11.190;2024-03-17T13:24:07;20.00;81.30
16929;DHT22;8581;47.334;11.190;2024-03-17T13:26:39;20.40;81.20
16929;DHT22;8581;47.334;11.190;2024-03-17T13:29:12;20.00;77.80
16929;DHT22;8581;47.334;11.190;2024-03-17T13:31:44;20.40;79.70
16929;DHT22;8581;47.334;11.190;2024-03-17T13:34:16;20.10;77.20
16929;DHT22;8581;47.334;11.190;2024-03-17T13:36:48;19.40;80.80
16929;DHT22;8581;47.334;11.190;2024-03-17T13:39:20;19.20;78.20
16929;DHT22;8581;47.334;11.190;2024-03-17T13:41:52;18.30;80.00
16929;DHT22;8581;47.334;11.190;2024-03-17T13:44:24;19.30;80.50
16929;DHT22;8581;47.334;11.190;2024-03-17T13:46:57;18.60;82.70
16929;DHT22;8581;47.334;11.190;2024-03-17T13:49:29;19.10;81.60
16929;DHT22;8581;47.334;11.190;2024-03-17T13:52:00;18.90;82.70
16929;DHT22;8581;47.334;11.190;2024-03-17T13:54:32;19.50;81.80
16929;DHT22;8581;47.334;11.190;2024-03-17T13:57:04;19.70;82.60
16929;DHT22;8581;47.334;11.190;2024-03-17T13:59:36;19.20;86.70
16929;DHT22;8581;47.334;11.190;2024-03-17T14:02:12;19.40;86.80
16929;DHT22;8581;47.334;11.190;2024-03-17T14:04:42;19.00;90.30
16929;DHT22;8581;47.334;11.190;2024-03-17T14:07:15;18.60;88.40
16929;DHT22;8581;47.334;11.190;2024-03-17T14:09:47;18.20;90.20
16929;DHT22;8581;47.334;11.190;2024-03-17T14:12:19;18.10;90.90
16929;DHT22;8581;47.334;11.190;2024-03-17T14:14:51;17.70;90.80
16929;DHT22;8581;47.334;11.190;2024-03-17T14:17:23;16.90;91.70
16929;DHT22;8581;47.334;11.190;2024-03-17T14:19:55;16.60;91.40
16929;DHT22;8581;47.334;11.190;2024-03-17T14:22:27;16.60;92.10
16929;DHT22;8581;47.334;11.190;2024-03-17T14:24:58;16.20;92.00
16929;DHT22;8581;47.334;11.190;2024-03-17T14:27:31;15.30;93.00
16929;DHT22;8581;47.334;11.190;2024-03-17T14:30:04;15.50;93.50
16929;DHT22;8581;47.334;11.190;2024-03-17T14:32:36;15.30;93.70
16929;DHT22;8581;47.334;11.190;2024-03-17T14:35:16;14.70;94.30
16929;DHT22;8581;47.334;11.190;2024-03-17T14:37:48;14.70;92.90
16929;DHT22;8581;47.334;11.190;2024-03-17T14:40:20;14.90;92.00
16929;DHT22;8581;47.334;11.190;2024-03-17T14:42:53;14.90;91.70
16929;DHT22;8581;47.334;11.190;2024-03-17T14:45:25;14.70;93.10
16929;DHT22;8581;47.334;11.190;2024-03-17T14:47:58;14.20;95.60
16929;DHT22;8581;47.334;11.190;2024-03-17T14:50:30;13.70;97.00
16929;DHT22;8581;47.334;11.190;2024-03-17T14:53:02;13.60;97.10
16929;DHT22;8581;47.334;11.190;2024-03-17T14:55:34;13.80;96.10
16929;DHT22;8581;47.334;11.190;2024-03-17T14:58:06;13.50;96.30
16929;DHT22;8581;47.334;11.190;2024-03-17T15:00:39;13.60;97.30
16929;DHT22;8581;47.334;11.190;2024-03-17T15:03:11;13.70;97.30
16929;DHT22;8581;47.334;11.190;2024-03-17T15:05:43;13.80;95.00
16929;DHT22;8581;47.334;11.190;2024-03-17T15:08:15;13.70;96.70
16929;DHT22;8581;47.334;11.190;2024-03-17T15:10:47;13.70;98.30
16929;DHT22;8581;47.334;11.190;2024-03-17T15:13:19;13.50;98.30
16929;DHT22;8581;47.334;11.190;2024-03-17T15:15:50;13.90;98.10
16929;DHT22;8581;47.334;11.190;2024-03-17T15:18:23;13.70;98.60
16929;DHT22;8581;47.334;11.190;2024-03-17T15:20:56;13.30;99.20
16929;DHT22;8581;47.334;11.190;2024-03-17T15:23:28;13.60;99.90
16929;DHT22;8581;47.334;11.190;2024-03-17T15:26:04;14.00;99.50
16929;DHT22;8581;47.334;11.190;2024-03-17T15:28:40;13.50;99.40
16929;DHT22;8581;47.334;11.190;2024-03-17T15:31:12;13.30;99.90
16929;DHT22;8581;47.334;11.190;2024-03-17T15:33:44;13.50;99.90
16929;DHT22;8581;47.334;11.190;2024-03-17T15:36:16;13.20;99.60
16929;DHT22;8581;47.334;11.190;2024-03-17T15:38:48;12.90;99.90
16929;DHT22;8581;47.334;11.190;2024-03-17T15:41:20;12.80;99.90
16929;DHT22;8581;47.334;11.190;2024-03-17T15:43:52;12.80;99.90
16929;DHT22;8581;47.334;11.190;2024-03-17T15:46:24;12.60;99.90
16929;DHT22;8581;47.334;11.190;2024-03-17T15:48:56;12.30;99.90
16929;DHT22;8581;47.334;11.190;2024-03-17T15:51:28;12.20;99.90
16929;DHT22;8581;47.334;11.190;2024-03-17T15:54:01;12.20;99.90
16929;DHT22;8581;47.334;11.190;2024-03-17T15:56:33;12.30;99.90
16929;DHT22;8581;47.334;11.190;2024-03-17T15:59:05;12.10;99.90
16929;DHT22;8581;47.334;11.190;2024-03-17T16:01:37;12.00;99.90
16929;DHT22;8581;47.334;11.190;2024-03-17T16:04:10;11.90;99.90
16929;DHT22;8581;47.334;11.190;2024-03-17T16:06:43;11.90;99.90
16929;DHT22;8581;47.334;11.190;2024-03-17T16:09:15;11.90;99.90
16929;DHT22;8581;47.334;11.190;2024-03-17T16:11:46;11.80;99.90
16929;DHT22;8581;47.334;11.190;2024-03-17T16:14:19;11.40;99.90
16929;DHT22;8581;47.334;11.190;2024-03-17T16:19:41;11.40;99.90
16929;DHT22;8581;47.334;11.190;2024-03-17T16:22:14;11.50;99.90